METAR AND TAF INFORMATION
METAR FOR EGAC
ADDS - METARS form results

(2134 UTC 04 August 2021)
Data provider http://aviationweather.gov/metar/data/
 
METAR text: EGAC 042120Z AUTO 19004KT 9999 FEW030/// 16/14 Q1006 RERA
Conditions at: EGAC (BELFAST HARBOUR , GB) observed 2120 UTC 04 August 2021
Temperature: 16.0°C (61°F)
Dewpoint: 14.0°C (57°F) [RH = 88%]
Pressure (altimeter): 29.70 inches Hg (1006.0 mb)
Winds: from the S (190 degrees) at 5 MPH (4 knots; 2.1 m/s)
Visibility: 6 or more miles (10+ km)
Ceiling: at least 12,000 feet AGL
Clouds: few clouds at 3000 feet AGL
Weather: no significant weather observed at this time

METAR text: EGAC 042050Z AUTO 20008KT 160V230 3800 RA FEW028/// BKN037/// 16/14 Q1006 RERA
Conditions at: EGAC (BELFAST HARBOUR , GB) observed 2050 UTC 04 August 2021
Temperature: 16.0°C (61°F)
Dewpoint: 14.0°C (57°F) [RH = 88%]
Pressure (altimeter): 29.70 inches Hg (1006.0 mb)
Winds: from the SSW (200 degrees) at 9 MPH (8 knots; 4.1 m/s)
Visibility: 2.36 miles (3.80 km)
Ceiling: 3700 feet AGL
Clouds: few clouds at 2800 feet AGL
broken clouds at 3700 feet AGL
Weather: RA  (moderate rain)

Forecast for: EGAC (BELFAST HARBOUR , GB)
Text: TAF EGAC 041704Z 0418/0421 17012KT 9999 FEW020 SCT035
Forecast period: 1800 to 2100 UTC 04 August 2021
Forecast type: FROM: standard forecast or significant change
Winds: from the S (170 degrees) at 14 MPH (12 knots; 6.2 m/s)
Visibility: 6 or more miles (10+ km)
Ceiling: at least 12,000 feet AGL
Clouds: few clouds at 2000 feet AGL
scattered clouds at 3500 feet AGL
Weather: no significant weather forecast for this period
Text: TEMPO 0418/0421 7000 SHRA
Forecast period: 1800 to 2100 UTC 04 August 2021
Forecast type: TEMPORARY: The following changes expected for less than half the time period
Visibility: 4 miles (7 km)
Ceiling: unknown
Clouds: missing
Weather: SHRA  (rain showers)
Text: PROB30
Forecast period: 1800 to 2100 UTC 04 August 2021
Forecast type: TEMPORARY: The following changes expected for less than half the time period
Winds: variable direction winds at 6 MPH (5 knots; 2.6 m/s)
Visibility: 2.49 miles (4.01 km)
Ceiling: 1400 feet AGL
Clouds: broken clouds at 1400 feet AGL
broken clouds at 3000 feet AGL
Weather: +SHRA +TSRA  (heavy rain showers, heavy rain associated with thunderstorm(s))

 AIRPORT MAP

 RUNWAY INFORMATION
Runway 04 Runway length 6001 ft Runway width 148 ft
Runway elevation 13 ft Runway displaced threshold 303 ft Runway heading 35
Runway 22 Runway length 6001 ft Runway width 148 ft
Runway elevation 12 ft Runway displaced threshold 0 ft Runway heading 215

 AIRPORT FREQUENCIES
Type APP Name BELFAST AP Frequency 130.85 MHZ
Type ATIS Name ATIS Frequency 136.625 MHZ
Type TWR Name BELFAST TW Frequency 122.825 MHZ

 AIRPORT NEAR NAVIGATION AIDS





Powered by Virtual Airlines Manager

Maps by Rafael Santos